Time;durP1;ratioP1;P1;durP2;ratioP2;P2;SDS_P1;SDS_P2;PMS_P1;PMS_P2;Temp;Humidity;BMP_temperature;BMP_pressure;BME280_temperature;BME280_humidity;BME280_pressure;Samples;Min_cycle;Max_cycle;Signal;HPM_P1;HPM_P2
2023/08/21 00:01:17;;;;;;;10.05;2.00;;;21.70;99.90;;;;;;5052490;28;20060;-81
2023/08/21 00:03:42;;;;;;;4.18;1.45;;;21.10;99.90;;;;;;5051208;28;20061;-81
2023/08/21 00:06:08;;;;;;;3.88;1.65;;;21.20;99.90;;;;;;5052134;28;20025;-81
2023/08/21 00:08:34;;;;;;;4.38;1.60;;;21.10;99.90;;;;;;5052179;28;20329;-81
2023/08/21 00:10:59;;;;;;;2.03;1.08;;;21.10;99.90;;;;;;5051405;28;20432;-81
2023/08/21 00:13:25;;;;;;;2.80;1.63;;;21.00;99.90;;;;;;5052120;28;20033;-81
2023/08/21 00:15:50;;;;;;;5.95;1.30;;;21.10;99.90;;;;;;5051698;28;20021;-81
2023/08/21 00:18:16;;;;;;;4.22;1.85;;;20.90;99.90;;;;;;5051345;28;20033;-81
2023/08/21 00:20:42;;;;;;;3.63;1.52;;;21.00;99.90;;;;;;5051627;28;20488;-81
2023/08/21 00:23:08;;;;;;;6.13;2.13;;;21.00;99.90;;;;;;5051826;28;20072;-81
2023/08/21 00:25:34;;;;;;;3.47;1.40;;;20.90;99.90;;;;;;5051160;28;20400;-81
2023/08/21 00:28:00;;;;;;;4.93;1.50;;;20.90;99.90;;;;;;5052023;28;20029;-81
2023/08/21 00:30:26;;;;;;;10.13;2.65;;;20.90;99.90;;;;;;5051491;28;20100;-80
2023/08/21 00:32:52;;;;;;;4.57;1.55;;;20.90;99.90;;;;;;5050996;28;20119;-81
2023/08/21 00:35:18;;;;;;;3.55;1.50;;;20.90;99.90;;;;;;5051837;28;20132;-81
2023/08/21 00:37:44;;;;;;;6.55;1.65;;;20.90;99.90;;;;;;5050711;28;20100;-81
2023/08/21 00:40:10;;;;;;;3.70;1.40;;;20.90;99.90;;;;;;5051684;28;20029;-81
2023/08/21 00:42:36;;;;;;;4.22;1.50;;;20.90;99.90;;;;;;5051532;28;20070;-81
2023/08/21 00:45:03;;;;;;;4.15;1.67;;;20.90;99.90;;;;;;5051406;28;20024;-81
2023/08/21 00:47:29;;;;;;;3.05;1.55;;;20.90;99.90;;;;;;5051709;28;20475;-81
2023/08/21 00:49:55;;;;;;;3.47;1.38;;;20.80;99.90;;;;;;5051364;28;20028;-81
2023/08/21 00:52:20;;;;;;;5.70;1.90;;;20.90;99.90;;;;;;5050970;28;20040;-81
2023/08/21 00:54:46;;;;;;;3.40;1.95;;;20.90;99.90;;;;;;5052008;28;20024;-81
2023/08/21 00:57:12;;;;;;;4.05;1.70;;;20.90;99.90;;;;;;5051730;28;20119;-81
2023/08/21 00:59:38;;;;;;;10.85;2.08;;;20.90;99.90;;;;;;5050553;28;20024;-81
2023/08/21 01:02:04;;;;;;;4.88;2.20;;;20.90;99.90;;;;;;5051446;28;20021;-81
2023/08/21 01:04:30;;;;;;;8.18;2.00;;;20.90;99.90;;;;;;5051234;28;20082;-81
2023/08/21 01:06:57;;;;;;;4.53;2.10;;;20.90;99.90;;;;;;5050606;28;20028;-81
2023/08/21 01:09:55;;;;;;;4.07;2.30;;;20.90;99.90;;;;;;5051654;28;20033;-81
2023/08/21 01:12:50;;;;;;;6.53;2.65;;;20.90;99.90;;;;;;5051349;28;20389;-81
2023/08/21 01:15:16;;;;;;;4.82;2.08;;;20.80;99.90;;;;;;5050744;28;20034;-81
2023/08/21 01:17:43;;;;;;;5.07;2.35;;;21.10;99.90;;;;;;5051259;28;20039;-81
2023/08/21 01:20:10;;;;;;;6.45;1.95;;;21.50;99.90;;;;;;5050641;28;20104;-81
2023/08/21 01:22:38;;;;;;;5.22;2.20;;;20.90;99.90;;;;;;5051433;28;20546;-81
2023/08/21 01:25:08;;;;;;;7.88;2.00;;;21.10;99.90;;;;;;5051680;28;20021;-81
2023/08/21 01:27:35;;;;;;;3.60;1.73;;;20.90;99.90;;;;;;5050363;28;20063;-81
2023/08/21 01:30:03;;;;;;;7.95;2.38;;;20.90;99.90;;;;;;5051439;28;20033;-81
2023/08/21 01:32:52;;;;;;;4.63;1.85;;;20.90;99.90;;;;;;5051084;28;20044;-81
2023/08/21 01:35:19;;;;;;;2.97;1.53;;;20.90;99.90;;;;;;5051620;28;20074;-81
2023/08/21 01:37:45;;;;;;;3.90;2.08;;;20.80;99.90;;;;;;5054546;28;20430;-81
2023/08/21 01:40:11;;;;;;;5.22;2.72;;;21.00;99.90;;;;;;5055155;28;20116;-81
2023/08/21 01:42:36;;;;;;;5.47;2.03;;;20.90;99.90;;;;;;5053774;28;20381;-81
2023/08/21 01:45:02;;;;;;;7.00;3.08;;;20.90;99.90;;;;;;5054919;28;20021;-81
2023/08/21 01:47:28;;;;;;;4.55;2.03;;;20.90;99.90;;;;;;5055057;28;20483;-81
2023/08/21 01:49:53;;;;;;;4.00;2.05;;;20.90;99.90;;;;;;5054024;28;20122;-80
2023/08/21 01:52:19;;;;;;;5.57;2.60;;;20.90;99.90;;;;;;5054588;28;20596;-81
2023/08/21 01:54:47;;;;;;;4.88;2.90;;;20.90;99.90;;;;;;5054614;28;20078;-81
2023/08/21 01:57:13;;;;;;;4.13;2.38;;;20.90;99.90;;;;;;5054381;28;20029;-81
2023/08/21 01:59:39;;;;;;;4.28;2.30;;;20.80;99.90;;;;;;5054418;28;20419;-81
2023/08/21 02:02:04;;;;;;;4.32;1.92;;;20.80;99.90;;;;;;5053907;28;20056;-81
2023/08/21 02:04:30;;;;;;;6.10;2.30;;;20.80;99.90;;;;;;5054792;28;20346;-80
2023/08/21 02:06:55;;;;;;;7.47;2.75;;;20.80;99.90;;;;;;5054322;28;20075;-80
2023/08/21 02:09:21;;;;;;;4.53;2.17;;;20.70;99.90;;;;;;5054007;28;20078;-80
2023/08/21 02:11:46;;;;;;;6.55;2.80;;;20.80;99.90;;;;;;5054259;28;20035;-81
2023/08/21 02:14:12;;;;;;;6.15;2.65;;;20.80;99.90;;;;;;5054401;28;20465;-81
2023/08/21 02:16:38;;;;;;;6.60;2.25;;;20.80;99.90;;;;;;5053160;28;20035;-81
2023/08/21 02:19:03;;;;;;;4.43;2.35;;;20.80;99.90;;;;;;5054295;28;20044;-81
2023/08/21 02:21:29;;;;;;;5.97;2.28;;;20.80;99.90;;;;;;5053932;28;20028;-80
2023/08/21 02:23:54;;;;;;;10.63;2.83;;;20.80;99.90;;;;;;5053621;28;20036;-81
2023/08/21 02:26:20;;;;;;;5.50;2.45;;;20.80;99.90;;;;;;5054311;28;20021;-81
2023/08/21 02:28:46;;;;;;;8.70;2.83;;;20.70;99.90;;;;;;5053836;28;20073;-81
2023/08/21 02:31:12;;;;;;;4.65;2.70;;;20.70;99.90;;;;;;5053241;28;20069;-81
2023/08/21 02:33:38;;;;;;;4.65;2.28;;;20.70;99.90;;;;;;5053627;28;20094;-80
2023/08/21 02:36:04;;;;;;;2.70;2.03;;;20.70;99.90;;;;;;5053785;28;20461;-81
2023/08/21 02:38:30;;;;;;;5.15;2.47;;;20.60;99.90;;;;;;5053160;28;20074;-81
2023/08/21 02:40:55;;;;;;;4.47;2.92;;;20.60;99.90;;;;;;5053838;28;20115;-81
2023/08/21 02:43:21;;;;;;;5.40;2.67;;;20.60;99.90;;;;;;5053981;28;20060;-80
2023/08/21 02:45:46;;;;;;;7.22;3.10;;;20.60;99.90;;;;;;5052505;28;20017;-81
2023/08/21 02:48:12;;;;;;;6.57;2.80;;;20.60;99.90;;;;;;5053665;28;20094;-80
2023/08/21 02:50:38;;;;;;;5.32;3.15;;;20.60;99.90;;;;;;5053240;28;20025;-80
2023/08/21 02:53:04;;;;;;;6.03;3.53;;;20.70;99.90;;;;;;5052972;28;20033;-80
2023/08/21 02:55:29;;;;;;;6.53;3.10;;;20.50;99.90;;;;;;5053235;28;20484;-80
2023/08/21 02:57:55;;;;;;;6.38;3.20;;;20.40;99.90;;;;;;5053523;28;20427;-80
2023/08/21 03:00:20;;;;;;;6.05;2.90;;;20.80;99.90;;;;;;5052909;28;20651;-80
2023/08/21 03:02:46;;;;;;;5.80;3.03;;;20.50;99.90;;;;;;5053042;28;20025;-80
2023/08/21 03:05:13;;;;;;;4.97;2.83;;;21.00;99.90;;;;;;5052522;28;20021;-81
2023/08/21 03:07:39;;;;;;;5.97;3.28;;;20.60;99.90;;;;;;5053221;28;20060;-80
2023/08/21 03:10:05;;;;;;;3.75;2.63;;;20.50;99.90;;;;;;5053289;28;20072;-80
2023/08/21 03:12:31;;;;;;;5.82;3.40;;;20.50;99.90;;;;;;5052324;28;20044;-80
2023/08/21 03:14:56;;;;;;;5.82;2.92;;;20.50;99.90;;;;;;5053065;28;20025;-80
2023/08/21 03:17:23;;;;;;;10.25;3.35;;;20.50;99.90;;;;;;5053480;28;20025;-81
2023/08/21 03:19:48;;;;;;;7.10;2.58;;;20.50;99.90;;;;;;5052069;28;20079;-81
2023/08/21 03:22:14;;;;;;;3.65;2.72;;;20.50;99.90;;;;;;5053308;28;20029;-81
2023/08/21 03:24:39;;;;;;;9.57;3.20;;;20.30;99.90;;;;;;5052867;28;20021;-81
2023/08/21 03:27:05;;;;;;;4.05;3.15;;;20.40;99.90;;;;;;5052437;28;20427;-81
2023/08/21 03:29:31;;;;;;;7.28;3.13;;;20.40;99.90;;;;;;5052734;28;20112;-80
2023/08/21 03:31:57;;;;;;;3.33;2.45;;;20.60;99.90;;;;;;5052569;28;20048;-80
2023/08/21 03:34:23;;;;;;;5.43;2.50;;;20.40;99.90;;;;;;5052115;28;20158;-80
2023/08/21 03:36:48;;;;;;;6.35;3.38;;;21.10;99.90;;;;;;5052321;28;20112;-81
2023/08/21 03:39:14;;;;;;;6.18;2.65;;;20.40;99.90;;;;;;5052986;28;20021;-80
2023/08/21 03:41:39;;;;;;;7.50;2.95;;;20.30;99.90;;;;;;5051537;28;20104;-80
2023/08/21 03:44:05;;;;;;;4.25;2.63;;;20.40;99.90;;;;;;5052625;28;20025;-80
2023/08/21 03:46:31;;;;;;;5.03;2.85;;;20.40;99.90;;;;;;5052406;28;20528;-80
2023/08/21 03:48:56;;;;;;;4.75;2.80;;;20.40;99.90;;;;;;5051679;28;20028;-81
2023/08/21 03:51:22;;;;;;;4.97;3.20;;;20.40;99.90;;;;;;5052458;28;20110;-82
2023/08/21 03:53:48;;;;;;;5.53;3.10;;;20.40;99.90;;;;;;5052268;28;20519;-82
2023/08/21 03:56:14;;;;;;;6.47;3.15;;;20.40;99.90;;;;;;5051929;28;20029;-81
2023/08/21 03:58:39;;;;;;;6.55;3.35;;;20.40;99.90;;;;;;5051581;28;20040;-82
2023/08/21 04:01:05;;;;;;;5.32;3.60;;;21.10;99.90;;;;;;5052382;28;20021;-81
2023/08/21 04:03:31;;;;;;;8.95;4.07;;;20.40;99.90;;;;;;5051291;28;20055;-82
2023/08/21 04:05:56;;;;;;;6.70;3.47;;;20.40;99.90;;;;;;5052406;28;20025;-81
2023/08/21 04:08:22;;;;;;;8.20;4.13;;;20.40;99.90;;;;;;5052288;28;20380;-81
2023/08/21 04:10:48;;;;;;;8.27;3.70;;;20.40;99.90;;;;;;5051341;28;20035;-82
2023/08/21 04:13:14;;;;;;;8.52;3.42;;;20.40;99.90;;;;;;5052051;28;20041;-82
2023/08/21 04:15:45;;;;;;;5.93;3.67;;;20.50;99.90;;;;;;5051247;28;20461;-82
2023/08/21 04:18:11;;;;;;;7.47;3.95;;;20.50;99.90;;;;;;5051902;28;20035;-82
2023/08/21 04:20:37;;;;;;;5.13;3.33;;;20.40;99.90;;;;;;5051638;28;20495;-82
2023/08/21 04:23:02;;;;;;;6.75;3.72;;;20.30;99.90;;;;;;5051594;28;20056;-82
2023/08/21 04:25:28;;;;;;;6.60;3.30;;;20.40;99.90;;;;;;5052013;28;20464;-81
2023/08/21 04:27:54;;;;;;;7.18;4.25;;;20.30;99.90;;;;;;5051985;28;20425;-81
2023/08/21 04:30:19;;;;;;;4.60;3.63;;;20.30;99.90;;;;;;5051275;28;20052;-81
2023/08/21 04:32:45;;;;;;;5.75;3.83;;;20.30;99.90;;;;;;5051277;28;20056;-81
2023/08/21 04:35:10;;;;;;;6.18;3.85;;;20.30;99.90;;;;;;5051730;28;20025;-82
2023/08/21 04:37:42;;;;;;;7.13;4.13;;;20.40;99.90;;;;;;5050931;28;20121;-82
2023/08/21 04:40:08;;;;;;;7.18;4.50;;;20.30;99.90;;;;;;5051958;28;20101;-81
2023/08/21 04:42:34;;;;;;;5.28;4.18;;;20.20;99.90;;;;;;5051575;28;20404;-81
2023/08/21 04:44:59;;;;;;;5.88;3.65;;;20.30;99.90;;;;;;5050855;28;20017;-82
2023/08/21 04:47:26;;;;;;;6.75;3.50;;;20.40;99.90;;;;;;5051771;28;20025;-81
2023/08/21 04:49:53;;;;;;;8.65;3.85;;;20.30;99.90;;;;;;5051517;28;20028;-81
2023/08/21 04:52:22;;;;;;;5.93;3.33;;;20.20;99.90;;;;;;5050789;28;20427;-81
2023/08/21 04:54:49;;;;;;;9.68;4.20;;;20.20;99.90;;;;;;5051386;28;20104;-81
2023/08/21 04:57:15;;;;;;;8.75;4.03;;;20.20;99.90;;;;;;5052124;28;20025;-81
2023/08/21 04:59:41;;;;;;;7.03;3.63;;;20.20;99.90;;;;;;5050515;28;20025;-81
2023/08/21 05:02:07;;;;;;;8.55;3.83;;;20.20;99.90;;;;;;5051494;28;20099;-81
2023/08/21 05:04:33;;;;;;;5.28;3.42;;;20.20;99.90;;;;;;5051464;28;20488;-81
2023/08/21 05:07:00;;;;;;;12.98;3.97;;;20.90;99.90;;;;;;5050437;28;20457;-81
2023/08/21 05:09:25;;;;;;;9.73;3.70;;;20.20;99.90;;;;;;5052949;28;20039;-81
2023/08/21 05:11:51;;;;;;;6.50;3.40;;;20.20;99.90;;;;;;5054332;28;20400;-81
2023/08/21 05:14:19;;;;;;;10.18;4.03;;;20.90;99.90;;;;;;5055780;28;20119;-82
2023/08/21 05:16:45;;;;;;;5.97;3.55;;;20.30;99.90;;;;;;5054978;28;20100;-82
2023/08/21 05:19:10;;;;;;;4.72;3.20;;;20.30;99.90;;;;;;5054626;28;20109;-82
2023/08/21 05:21:36;;;;;;;4.68;3.25;;;20.20;99.90;;;;;;5055320;28;20082;-82
2023/08/21 05:24:01;;;;;;;3.92;3.50;;;20.50;99.90;;;;;;5055488;28;20045;-82
2023/08/21 05:26:27;;;;;;;5.85;3.50;;;20.30;99.90;;;;;;5054667;28;20033;-81
2023/08/21 05:28:53;;;;;;;9.80;3.80;;;20.30;99.90;;;;;;5054723;28;20025;-82
2023/08/21 05:31:18;;;;;;;7.43;3.50;;;20.30;99.90;;;;;;5054825;28;20032;-81
2023/08/21 05:33:45;;;;;;;8.32;3.20;;;20.30;99.90;;;;;;5054212;28;20106;-81
2023/08/21 05:36:10;;;;;;;4.05;3.72;;;20.50;99.90;;;;;;5055069;28;20183;-81
2023/08/21 05:38:36;;;;;;;6.65;3.67;;;20.30;99.90;;;;;;5054548;28;20107;-81
2023/08/21 05:41:01;;;;;;;8.63;3.88;;;20.40;99.90;;;;;;5054139;28;20464;-81
2023/08/21 05:43:27;;;;;;;11.50;3.97;;;20.40;99.90;;;;;;5054765;28;20123;-81
2023/08/21 05:45:52;;;;;;;4.95;3.13;;;20.40;99.90;;;;;;5054332;28;20067;-82
2023/08/21 05:48:18;;;;;;;7.18;3.95;;;20.80;99.90;;;;;;5054119;28;20040;-81
2023/08/21 05:50:43;;;;;;;6.43;3.65;;;20.30;99.90;;;;;;5054414;28;20029;-82
2023/08/21 05:53:09;;;;;;;11.38;3.90;;;20.30;99.90;;;;;;5054503;28;20079;-81
2023/08/21 05:55:37;;;;;;;6.35;3.92;;;20.40;99.90;;;;;;5054025;28;20025;-81
2023/08/21 05:58:03;;;;;;;5.70;3.35;;;20.30;99.90;;;;;;5054512;28;20079;-81
2023/08/21 06:00:29;;;;;;;5.45;3.00;;;20.30;99.90;;;;;;5054236;28;20365;-82
2023/08/21 06:02:54;;;;;;;12.20;3.55;;;20.30;99.90;;;;;;5053634;28;20131;-81
2023/08/21 06:05:20;;;;;;;8.52;5.60;;;20.80;99.90;;;;;;5054785;28;20070;-81
2023/08/21 06:07:46;;;;;;;7.82;3.38;;;20.20;99.90;;;;;;5054438;28;20021;-81
2023/08/21 06:10:12;;;;;;;6.55;3.90;;;20.20;99.90;;;;;;5053716;28;20392;-81
2023/08/21 06:12:39;;;;;;;7.25;3.83;;;20.20;99.90;;;;;;5053903;28;20037;-81
2023/08/21 06:15:07;;;;;;;6.80;3.45;;;20.10;99.90;;;;;;5053748;28;20033;-81
2023/08/21 06:17:34;;;;;;;9.32;3.30;;;20.20;99.90;;;;;;5054109;28;20036;-82
2023/08/21 06:20:00;;;;;;;10.90;3.53;;;20.20;99.90;;;;;;5054293;28;20025;-81
2023/08/21 06:22:25;;;;;;;5.97;3.67;;;20.20;99.90;;;;;;5052859;28;20532;-81
2023/08/21 06:24:51;;;;;;;11.48;4.32;;;20.10;99.90;;;;;;5053797;28;20025;-81
2023/08/21 06:27:16;;;;;;;8.93;4.15;;;20.10;99.90;;;;;;5054395;28;20449;-81
2023/08/21 06:29:42;;;;;;;5.80;3.63;;;20.10;99.90;;;;;;5053066;28;20021;-81
2023/08/21 06:32:07;;;;;;;7.65;3.95;;;20.20;99.90;;;;;;5053712;28;20052;-81
2023/08/21 06:34:33;;;;;;;11.90;3.45;;;20.40;99.90;;;;;;5053621;28;20503;-81
2023/08/21 06:36:59;;;;;;;14.52;6.70;;;20.20;99.90;;;;;;5053023;28;20021;-81
2023/08/21 06:39:25;;;;;;;15.95;4.95;;;21.00;99.90;;;;;;5053694;28;20048;-81
2023/08/21 06:41:51;;;;;;;9.82;3.92;;;20.30;99.90;;;;;;5053171;28;20021;-81
2023/08/21 06:44:17;;;;;;;8.05;2.78;;;20.30;99.90;;;;;;5053014;28;20021;-81
2023/08/21 06:46:43;;;;;;;13.57;4.43;;;20.30;99.90;;;;;;5053241;28;20029;-80
2023/08/21 06:49:09;;;;;;;8.20;3.45;;;21.00;99.90;;;;;;5053449;28;20130;-81
2023/08/21 06:51:34;;;;;;;11.45;4.03;;;20.40;99.90;;;;;;5052768;28;20052;-81
2023/08/21 06:54:00;;;;;;;5.32;2.60;;;20.30;99.90;;;;;;5053289;28;20044;-81
2023/08/21 06:56:25;;;;;;;10.88;2.88;;;20.40;99.90;;;;;;5053470;28;20021;-81
2023/08/21 06:58:52;;;;;;;8.52;3.35;;;21.20;99.90;;;;;;5052685;28;20493;-81
2023/08/21 07:01:17;;;;;;;9.90;3.40;;;20.50;99.90;;;;;;5053304;28;20025;-80
2023/08/21 07:03:43;;;;;;;8.27;3.08;;;20.40;99.90;;;;;;5053169;28;20075;-80
2023/08/21 07:06:09;;;;;;;5.95;3.30;;;20.40;99.90;;;;;;5052726;28;20033;-80
2023/08/21 07:08:34;;;;;;;10.88;2.80;;;20.50;99.90;;;;;;5053455;28;20635;-80
2023/08/21 07:11:05;;;;;;;5.70;2.90;;;20.50;99.90;;;;;;5053200;28;20108;-80
2023/08/21 07:13:31;;;;;;;8.82;3.10;;;20.50;99.90;;;;;;5052423;28;20044;-80
2023/08/21 07:15:56;;;;;;;9.20;3.30;;;20.50;99.90;;;;;;5052861;28;20029;-80
2023/08/21 07:18:22;;;;;;;5.63;3.42;;;20.60;99.90;;;;;;5052678;28;20037;-83
2023/08/21 07:20:47;;;;;;;11.10;3.30;;;20.50;99.90;;;;;;5052476;28;20032;-80
2023/08/21 07:23:13;;;;;;;8.52;3.45;;;20.60;99.90;;;;;;5052747;28;20033;-80
2023/08/21 07:25:39;;;;;;;10.15;3.30;;;20.70;99.90;;;;;;5051760;28;20469;-80
2023/08/21 07:28:04;;;;;;;8.60;3.08;;;20.60;99.90;;;;;;5052842;28;20062;-80
2023/08/21 07:30:30;;;;;;;10.18;3.92;;;20.60;99.90;;;;;;5052783;28;20430;-81
2023/08/21 07:32:56;;;;;;;6.72;3.55;;;20.60;99.90;;;;;;5050792;28;20560;-80
2023/08/21 07:35:21;;;;;;;9.20;3.72;;;20.60;99.90;;;;;;5052822;28;20501;-82
2023/08/21 07:37:47;;;;;;;10.15;3.63;;;20.60;99.90;;;;;;5052402;28;20056;-82
2023/08/21 07:40:13;;;;;;;12.80;4.20;;;20.60;99.90;;;;;;5051843;28;20025;-82
2023/08/21 07:42:38;;;;;;;13.00;4.53;;;20.40;99.90;;;;;;5052724;28;20021;-82
2023/08/21 07:45:04;;;;;;;11.07;3.33;;;20.70;99.90;;;;;;5052605;28;20495;-82
2023/08/21 07:47:30;;;;;;;13.32;4.07;;;20.70;99.90;;;;;;5051891;28;20075;-82
2023/08/21 07:49:57;;;;;;;14.05;4.57;;;20.70;99.90;;;;;;5052376;28;20065;-82
2023/08/21 07:52:23;;;;;;;9.35;3.58;;;20.70;99.90;;;;;;5052285;28;20056;-82
2023/08/21 07:54:52;;;;;;;8.77;3.97;;;20.70;99.90;;;;;;5051449;28;20029;-81
2023/08/21 07:57:18;;;;;;;8.50;3.05;;;21.10;99.90;;;;;;5052652;28;20025;-81
2023/08/21 07:59:43;;;;;;;9.85;3.55;;;20.90;99.90;;;;;;5052188;28;20017;-81
2023/08/21 08:02:11;;;;;;;7.40;3.60;;;20.80;99.90;;;;;;5051648;28;20025;-81
2023/08/21 08:04:37;;;;;;;13.35;3.28;;;20.90;99.90;;;;;;5051950;28;20051;-81
2023/08/21 08:07:02;;;;;;;8.00;3.38;;;20.90;99.90;;;;;;5052238;28;20063;-81
2023/08/21 08:09:28;;;;;;;8.00;3.05;;;20.90;99.90;;;;;;5051453;28;20100;-81
2023/08/21 08:11:53;;;;;;;9.95;3.58;;;21.00;99.90;;;;;;5052245;28;20033;-81
2023/08/21 08:14:19;;;;;;;8.25;3.40;;;21.50;99.90;;;;;;5052068;28;20033;-82
2023/08/21 08:16:45;;;;;;;10.18;3.08;;;21.00;99.90;;;;;;5050986;28;20028;-81
2023/08/21 08:19:10;;;;;;;9.50;3.63;;;21.00;99.90;;;;;;5052171;28;20029;-81
2023/08/21 08:21:36;;;;;;;9.65;3.10;;;21.40;99.90;;;;;;5051892;28;20483;-81
2023/08/21 08:24:02;;;;;;;8.10;2.58;;;21.10;99.90;;;;;;5051149;28;20469;-81
2023/08/21 08:26:27;;;;;;;5.13;2.53;;;21.10;99.90;;;;;;5052043;28;20171;-81
2023/08/21 08:28:53;;;;;;;7.10;2.33;;;21.20;99.90;;;;;;5050803;28;20024;-81
2023/08/21 08:31:19;;;;;;;9.00;1.95;;;21.00;99.90;;;;;;5051612;28;20029;-81
2023/08/21 08:33:45;;;;;;;8.13;2.30;;;21.20;99.90;;;;;;5051502;28;20068;-81
2023/08/21 08:36:11;;;;;;;7.03;2.10;;;21.20;99.90;;;;;;5051088;28;20469;-81
2023/08/21 08:38:37;;;;;;;7.38;1.92;;;21.60;99.90;;;;;;5051300;28;20021;-81
2023/08/21 08:41:10;;;;;;;5.72;2.53;;;21.50;99.90;;;;;;5051653;28;20370;-81
2023/08/21 08:43:40;;;;;;;6.40;1.77;;;21.40;99.90;;;;;;5050692;28;20037;-81
2023/08/21 08:46:07;;;;;;;9.00;2.95;;;21.20;99.90;;;;;;5051814;28;20436;-81
2023/08/21 08:48:34;;;;;;;4.72;1.48;;;21.30;99.90;;;;;;5051416;28;20063;-81
2023/08/21 08:50:59;;;;;;;6.03;2.05;;;21.40;99.90;;;;;;5050804;28;20112;-81
2023/08/21 08:53:27;;;;;;;6.60;2.88;;;21.70;99.90;;;;;;5051528;28;20143;-81
2023/08/21 08:55:52;;;;;;;6.22;1.70;;;21.60;99.90;;;;;;5051120;28;20384;-81
2023/08/21 08:58:18;;;;;;;6.63;2.05;;;21.40;99.90;;;;;;5051030;28;20021;-81
2023/08/21 09:00:43;;;;;;;4.85;1.33;;;21.50;99.90;;;;;;5051252;28;20075;-81
2023/08/21 09:03:10;;;;;;;8.30;2.25;;;21.50;99.90;;;;;;5051574;28;20033;-81
2023/08/21 09:05:36;;;;;;;7.05;1.92;;;21.50;99.90;;;;;;5050790;28;20484;-81
2023/08/21 09:08:14;;;;;;;4.38;1.80;;;21.50;99.90;;;;;;5051757;28;20075;-81
2023/08/21 09:10:41;;;;;;;5.78;2.30;;;21.90;99.90;;;;;;5051480;28;20048;-81
2023/08/21 09:13:25;;;;;;;7.13;2.28;;;21.50;99.90;;;;;;5051104;28;20029;-81
2023/08/21 09:15:58;;;;;;;8.90;2.72;;;21.60;99.90;;;;;;5051017;28;20021;-82
2023/08/21 09:18:23;;;;;;;9.82;2.85;;;21.60;99.90;;;;;;5050691;28;20035;-81
2023/08/21 09:20:49;;;;;;;13.55;2.97;;;21.80;99.90;;;;;;5050891;28;20461;-81
2023/08/21 09:23:16;;;;;;;7.80;2.08;;;21.80;99.90;;;;;;5051313;28;20083;-81
2023/08/21 09:25:47;;;;;;;4.97;1.83;;;21.80;99.90;;;;;;5050343;28;20120;-81
2023/08/21 09:28:13;;;;;;;6.38;2.17;;;21.80;99.90;;;;;;5051349;28;20025;-81
2023/08/21 09:30:46;;;;;;;8.07;1.92;;;21.80;99.90;;;;;;5050777;28;20026;-81
2023/08/21 09:33:12;;;;;;;6.60;1.70;;;21.90;99.90;;;;;;5050259;28;20080;-81
2023/08/21 09:35:39;;;;;;;5.57;1.70;;;22.00;99.90;;;;;;5050973;28;20025;-81
2023/08/21 09:38:06;;;;;;;4.50;2.00;;;21.80;99.90;;;;;;5051366;28;20040;-81
2023/08/21 09:40:32;;;;;;;4.22;1.63;;;21.90;99.90;;;;;;5050388;28;20935;-81
2023/08/21 09:42:59;;;;;;;8.57;2.15;;;22.00;99.90;;;;;;5051109;28;20024;-81
2023/08/21 09:45:26;;;;;;;4.68;1.33;;;22.40;99.90;;;;;;5051159;28;20044;-82
2023/08/21 09:47:55;;;;;;;8.02;1.90;;;21.90;99.90;;;;;;5050863;28;20396;-81
2023/08/21 09:50:22;;;;;;;6.18;1.77;;;22.20;99.90;;;;;;5051287;28;20025;-81
2023/08/21 09:52:48;;;;;;;9.93;1.65;;;22.00;99.90;;;;;;5050778;28;20065;-81
2023/08/21 09:55:15;;;;;;;6.15;1.88;;;22.10;99.90;;;;;;5050155;28;20033;-82
2023/08/21 09:57:41;;;;;;;9.95;2.83;;;22.10;99.90;;;;;;5054272;28;20025;-81
2023/08/21 10:00:19;;;;;;;6.50;1.88;;;22.20;99.90;;;;;;5054260;28;20025;-81
2023/08/21 10:02:50;;;;;;;7.03;2.20;;;22.20;99.90;;;;;;5054282;28;20036;-82
2023/08/21 10:05:19;;;;;;;8.02;2.40;;;22.30;99.90;;;;;;5054707;28;20108;-81
2023/08/21 10:07:48;;;;;;;5.25;2.08;;;23.20;99.90;;;;;;5053439;28;20033;-81
2023/08/21 10:10:14;;;;;;;4.63;2.05;;;22.40;99.90;;;;;;5054216;28;20025;-81
2023/08/21 10:12:40;;;;;;;6.60;2.50;;;22.70;99.90;;;;;;5054084;28;20385;-81
2023/08/21 10:15:07;;;;;;;7.88;2.30;;;22.40;99.90;;;;;;5053714;28;20025;-82
2023/08/21 10:17:33;;;;;;;9.25;2.40;;;22.50;99.90;;;;;;5054090;28;20110;-82
2023/08/21 10:20:06;;;;;;;3.30;1.60;;;22.90;99.90;;;;;;5053917;28;20477;-82
2023/08/21 10:22:48;;;;;;;5.03;2.25;;;22.40;99.90;;;;;;5053231;28;20025;-82
2023/08/21 10:25:22;;;;;;;5.30;1.20;;;22.50;99.90;;;;;;5054171;28;20056;-82
2023/08/21 10:27:57;;;;;;;5.10;1.17;;;22.50;99.90;;;;;;5053953;28;20781;-81
2023/08/21 10:30:26;;;;;;;11.70;2.25;;;22.60;99.90;;;;;;5053385;28;20051;-81
2023/08/21 10:32:54;;;;;;;2.67;1.10;;;22.60;99.90;;;;;;5053202;28;20124;-81
2023/08/21 10:35:22;;;;;;;6.25;1.10;;;22.60;99.90;;;;;;5053108;28;20464;-81
2023/08/21 10:38:14;;;;;;;4.78;1.70;;;22.60;99.90;;;;;;5053452;28;20024;-81
2023/08/21 10:40:41;;;;;;;3.47;0.98;;;22.70;99.90;;;;;;5053456;28;20389;-81
2023/08/21 10:43:45;;;;;;;4.97;1.15;;;22.70;99.90;;;;;;5053023;28;20029;-82
2023/08/21 10:46:12;;;;;;;3.40;1.38;;;22.60;99.90;;;;;;5053390;28;20021;-81
2023/08/21 10:48:39;;;;;;;4.53;1.58;;;22.60;99.90;;;;;;5053149;28;20483;-80
2023/08/21 10:51:07;;;;;;;2.90;1.00;;;22.60;99.90;;;;;;5052799;28;20074;-82
2023/08/21 10:53:33;;;;;;;9.15;2.08;;;22.60;99.90;;;;;;5053227;28;20037;-82
2023/08/21 10:56:04;;;;;;;2.88;1.48;;;22.70;99.90;;;;;;5053730;28;20057;-82
2023/08/21 10:58:40;;;;;;;;;;;22.70;99.90;;;;;;5052765;28;20029;-79
2023/08/21 11:01:06;;;;;;;2.17;1.35;;;22.80;99.90;;;;;;5053693;28;19905;-82
2023/08/21 11:03:32;;;;;;;4.53;1.70;;;22.80;99.90;;;;;;5052135;28;20073;-82
2023/08/21 11:06:19;;;;;;;4.68;1.05;;;22.90;99.90;;;;;;5052970;28;20024;-81
2023/08/21 11:08:44;;;;;;;3.80;1.60;;;22.80;99.90;;;;;;5052552;28;20060;-81
2023/08/21 11:11:10;;;;;;;2.75;1.27;;;23.00;99.90;;;;;;5052660;28;20044;-82
2023/08/21 11:13:36;;;;;;;5.88;1.40;;;22.90;99.90;;;;;;5052629;28;20041;-80
2023/08/21 11:16:04;;;;;;;6.03;1.52;;;23.00;99.90;;;;;;5053028;28;20025;-82
2023/08/21 11:18:37;;;;;;;5.63;1.38;;;23.00;99.90;;;;;;5052008;28;20052;-82
2023/08/21 11:21:11;;;;;;;3.85;1.58;;;23.00;99.90;;;;;;5052752;28;20029;-82
2023/08/21 11:23:38;;;;;;;6.03;1.90;;;23.10;99.90;;;;;;5052790;28;20025;-80
2023/08/21 11:26:05;;;;;;;3.70;1.48;;;23.20;99.90;;;;;;5052168;28;20381;-82
2023/08/21 11:28:31;;;;;;;3.65;1.30;;;23.20;99.90;;;;;;5052815;28;20031;-82
2023/08/21 11:30:57;;;;;;;4.57;1.20;;;23.20;99.90;;;;;;5052710;28;20028;-82
2023/08/21 11:33:23;;;;;;;5.30;2.17;;;23.30;99.90;;;;;;5051868;28;20493;-82
2023/08/21 11:35:49;;;;;;;4.80;1.85;;;23.30;99.90;;;;;;5052603;28;20040;-82
2023/08/21 11:38:22;;;;;;;6.97;1.70;;;23.30;99.90;;;;;;5052963;28;20032;-82
2023/08/21 11:40:51;;;;;;;7.70;1.92;;;23.30;99.90;;;;;;5051750;28;20078;-82
2023/08/21 11:43:17;;;;;;;2.88;1.58;;;23.30;99.90;;;;;;5052707;28;20443;-82
2023/08/21 11:45:45;;;;;;;8.73;2.42;;;23.30;99.90;;;;;;5051634;28;20021;-82
2023/08/21 11:48:10;;;;;;;4.07;1.90;;;23.30;99.90;;;;;;5052458;28;20481;-82
2023/08/21 11:50:36;;;;;;;5.63;1.88;;;23.50;99.90;;;;;;5052233;28;20024;-82
2023/08/21 11:53:03;;;;;;;3.28;1.90;;;23.40;99.90;;;;;;5051562;28;20033;-82
2023/08/21 11:55:29;;;;;;;4.90;1.80;;;23.40;99.90;;;;;;5052510;28;20110;-82
2023/08/21 11:57:55;;;;;;;4.35;1.98;;;23.40;99.90;;;;;;5052556;28;20060;-82
2023/08/21 12:00:27;;;;;;;7.65;2.20;;;23.40;99.90;;;;;;5051646;28;20430;-82
2023/08/21 12:03:02;;;;;;;5.05;2.03;;;23.40;99.90;;;;;;5051793;28;20055;-82
2023/08/21 12:05:28;;;;;;;3.03;1.52;;;23.40;99.90;;;;;;5052140;28;20025;-82
2023/08/21 12:07:54;;;;;;;3.42;1.63;;;23.30;99.90;;;;;;5051755;28;20127;-81
2023/08/21 12:10:24;;;;;;;6.30;2.05;;;23.40;99.90;;;;;;5052043;28;20024;-82
2023/08/21 12:12:50;;;;;;;3.22;1.77;;;23.40;99.90;;;;;;5051509;28;20116;-81
2023/08/21 12:15:15;;;;;;;6.18;2.40;;;23.50;99.90;;;;;;5051308;28;20128;-81
2023/08/21 12:17:41;;;;;;;5.07;2.08;;;23.50;99.90;;;;;;5051433;28;20449;-81
2023/08/21 12:20:10;;;;;;;6.60;1.77;;;24.00;99.90;;;;;;5051255;28;20021;-82
2023/08/21 12:22:37;;;;;;;6.80;2.17;;;23.50;99.90;;;;;;5050815;28;20435;-82
2023/08/21 12:25:03;;;;;;;4.55;1.60;;;23.50;99.90;;;;;;5051969;28;20031;-81
2023/08/21 12:27:29;;;;;;;6.20;1.48;;;23.60;99.90;;;;;;5051682;28;20075;-82
2023/08/21 12:29:55;;;;;;;5.82;1.52;;;23.60;99.90;;;;;;5051052;28;20032;-81
2023/08/21 12:32:20;;;;;;;5.38;1.30;;;23.60;99.90;;;;;;5051643;28;20124;-82
2023/08/21 12:34:46;;;;;;;3.78;1.35;;;23.80;99.90;;;;;;5051557;28;20435;-82
2023/08/21 12:37:11;;;;;;;4.63;1.67;;;24.00;99.90;;;;;;5051170;28;20025;-82
2023/08/21 12:39:37;;;;;;;6.95;1.65;;;24.00;99.90;;;;;;5051528;28;20029;-81
2023/08/21 12:42:04;;;;;;;4.03;1.80;;;24.00;99.90;;;;;;5051009;28;20021;-82
2023/08/21 12:44:29;;;;;;;3.25;1.35;;;24.00;99.90;;;;;;5051344;28;20035;-82